Time;durP1;ratioP1;P1;durP2;ratioP2;P2;SDS_P1;SDS_P2;PMS_P1;PMS_P2;Temp;Humidity;BMP_temperature;BMP_pressure;BME280_temperature;BME280_humidity;BME280_pressure;Samples;Min_cycle;Max_cycle;Signal;HPM_P1;HPM_P2
2022/10/11 00:01:35;;;;;;;5.03;1.90;;;11.30;99.90;;;;;;5003240;28;20208;-71
2022/10/11 00:04:00;;;;;;;4.20;1.40;;;11.20;99.90;;;;;;5002380;28;20263;-73
2022/10/11 00:06:26;;;;;;;4.80;2.00;;;11.20;99.90;;;;;;5005191;28;20167;-74
2022/10/11 00:08:51;;;;;;;3.87;1.73;;;11.20;99.90;;;;;;5001557;28;20216;-72
2022/10/11 00:11:17;;;;;;;5.60;3.13;;;11.10;99.90;;;;;;5001772;28;20180;-71
2022/10/11 00:13:42;;;;;;;3.53;1.60;;;11.00;99.90;;;;;;5001763;28;20199;-72
2022/10/11 00:16:10;;;;;;;5.03;2.30;;;11.00;99.90;;;;;;5005767;28;20185;-72
2022/10/11 00:18:36;;;;;;;2.37;1.30;;;10.90;99.90;;;;;;5005225;28;20232;-72
2022/10/11 00:21:06;;;;;;;7.60;1.50;;;10.90;99.90;;;;;;5002166;28;20408;-72
2022/10/11 00:23:32;;;;;;;4.23;2.00;;;10.90;99.90;;;;;;5003580;28;20460;-72
2022/10/11 00:26:02;;;;;;;3.30;1.60;;;10.80;99.90;;;;;;5005751;28;20415;-72
2022/10/11 00:28:28;;;;;;;2.67;1.73;;;10.70;99.90;;;;;;5004384;28;20619;-72
2022/10/11 00:30:54;;;;;;;3.03;1.80;;;10.80;99.90;;;;;;5003741;28;20417;-72
2022/10/11 00:33:20;;;;;;;3.63;1.70;;;10.80;99.90;;;;;;5020952;28;20526;-72
2022/10/11 00:35:45;;;;;;;2.77;1.30;;;10.70;99.90;;;;;;5017394;28;20161;-71
2022/10/11 00:38:11;;;;;;;5.07;1.90;;;10.70;99.90;;;;;;5028276;28;20582;-72
2022/10/11 00:40:38;;;;;;;3.50;1.67;;;10.60;99.90;;;;;;5031600;28;20532;-72
2022/10/11 00:43:11;;;;;;;1.17;1.07;;;10.60;99.90;;;;;;5031452;28;20673;-72
2022/10/11 00:45:37;;;;;;;4.27;1.50;;;10.50;99.90;;;;;;5031461;28;20414;-71
2022/10/11 00:48:20;;;;;;;3.50;1.53;;;10.50;99.90;;;;;;5031584;28;20805;-72
2022/10/11 00:50:46;;;;;;;1.57;1.47;;;10.40;99.90;;;;;;5031206;28;20706;-71
2022/10/11 00:53:12;;;;;;;3.27;1.70;;;10.40;99.90;;;;;;5031246;28;20426;-71
2022/10/11 00:55:53;;;;;;;2.73;1.47;;;10.30;99.90;;;;;;5031311;28;20176;-72
2022/10/11 00:58:21;;;;;;;7.23;1.83;;;10.20;99.90;;;;;;5030059;28;20408;-71
2022/10/11 01:00:47;;;;;;;3.23;1.90;;;10.10;99.90;;;;;;5018298;28;20440;-71
2022/10/11 01:03:13;;;;;;;9.97;2.23;;;10.10;99.90;;;;;;5031141;28;20430;-70
2022/10/11 01:05:39;;;;;;;3.63;1.63;;;10.10;99.90;;;;;;5031994;28;20178;-72
2022/10/11 01:08:06;;;;;;;3.50;1.53;;;10.00;99.90;;;;;;5032873;28;20413;-72
2022/10/11 01:10:31;;;;;;;7.63;1.70;;;10.00;99.90;;;;;;5035450;28;20199;-73
2022/10/11 01:13:26;;;;;;;3.63;1.83;;;9.90;99.90;;;;;;5034936;28;20508;-72
2022/10/11 01:16:18;;;;;;;4.40;1.63;;;9.90;99.90;;;;;;5031688;28;20176;-72
2022/10/11 01:19:06;;;;;;;4.90;1.47;;;9.80;99.90;;;;;;5005148;28;20408;-72
2022/10/11 01:21:49;;;;;;;4.90;1.67;;;9.80;99.90;;;;;;5028821;28;20448;-72
2022/10/11 01:24:34;;;;;;;6.90;2.27;;;9.70;99.90;;;;;;5031899;28;20469;-72
2022/10/11 01:27:43;;;;;;;4.40;1.30;;;9.80;99.90;;;;;;5025400;28;20497;-72
2022/10/11 01:30:42;;;;;;;3.97;1.60;;;9.60;99.90;;;;;;4996665;28;20438;-72
2022/10/11 01:33:22;;;;;;;4.97;1.67;;;9.70;99.90;;;;;;4998431;28;20939;-71
2022/10/11 01:35:48;;;;;;;4.20;1.23;;;9.80;99.90;;;;;;5034334;28;20424;-72
2022/10/11 01:38:32;;;;;;;3.47;1.63;;;9.70;99.90;;;;;;5022877;28;20442;-71
2022/10/11 01:41:04;;;;;;;6.07;1.50;;;9.70;99.90;;;;;;5018703;28;20611;-71
2022/10/11 01:43:31;;;;;;;2.37;1.70;;;9.70;99.90;;;;;;5025995;28;20510;-72
2022/10/11 01:45:59;;;;;;;6.63;2.30;;;9.60;99.90;;;;;;5027823;28;20505;-71
2022/10/11 01:48:24;;;;;;;2.03;1.60;;;9.50;99.90;;;;;;5021069;28;20426;-72
2022/10/11 01:50:55;;;;;;;5.40;1.53;;;9.50;99.90;;;;;;5028819;28;20413;-71
2022/10/11 01:53:45;;;;;;;2.17;1.33;;;9.50;99.90;;;;;;5024645;28;20695;-71
2022/10/11 01:56:44;;;;;;;5.43;1.70;;;9.40;99.90;;;;;;5020804;28;20413;-72
2022/10/11 01:59:17;;;;;;;4.27;1.40;;;9.40;99.90;;;;;;5022954;28;20421;-71
2022/10/11 02:01:58;;;;;;;9.87;2.00;;;9.30;99.90;;;;;;5029428;28;20418;-72
2022/10/11 02:04:32;;;;;;;4.20;1.60;;;9.30;99.90;;;;;;5025827;28;20472;-72
2022/10/11 02:07:05;;;;;;;8.73;1.90;;;9.20;99.90;;;;;;5032460;28;21002;-71
2022/10/11 02:09:47;;;;;;;5.90;1.60;;;9.10;99.90;;;;;;5025880;28;20453;-71
2022/10/11 02:12:20;;;;;;;5.47;1.73;;;9.20;99.90;;;;;;5015996;28;20543;-71
2022/10/11 02:14:48;;;;;;;1.40;1.30;;;9.00;99.90;;;;;;5028671;28;20773;-72
2022/10/11 02:17:18;;;;;;;8.20;1.83;;;9.00;99.90;;;;;;5030210;28;20465;-72
2022/10/11 02:19:48;;;;;;;5.17;1.83;;;8.90;99.90;;;;;;5025675;28;20450;-72
2022/10/11 02:22:22;;;;;;;10.90;2.00;;;8.90;99.90;;;;;;5029884;28;20860;-72
2022/10/11 02:24:52;;;;;;;7.03;1.57;;;8.90;99.90;;;;;;5032599;28;20454;-71
2022/10/11 02:27:22;;;;;;;3.23;1.73;;;8.90;99.90;;;;;;5015419;28;20413;-72
2022/10/11 02:29:50;;;;;;;2.63;1.67;;;8.90;99.90;;;;;;5033226;28;20412;-71
2022/10/11 02:32:17;;;;;;;10.70;1.80;;;8.80;99.90;;;;;;5029450;28;20434;-71
2022/10/11 02:34:52;;;;;;;4.83;1.80;;;8.90;99.90;;;;;;5033069;28;20910;-71
2022/10/11 02:37:46;;;;;;;5.37;1.53;;;8.90;99.90;;;;;;5023709;28;20420;-71
2022/10/11 02:40:20;;;;;;;6.83;2.10;;;8.80;99.90;;;;;;5028825;28;20418;-71
2022/10/11 02:43:00;;;;;;;4.40;1.93;;;8.70;99.90;;;;;;5032063;28;21169;-71
2022/10/11 02:45:41;;;;;;;7.30;2.20;;;8.70;99.90;;;;;;5027871;28;20809;-72
2022/10/11 02:48:09;;;;;;;2.40;1.90;;;8.80;99.90;;;;;;5023019;28;20958;-72
2022/10/11 02:50:36;;;;;;;1.53;1.43;;;8.80;99.90;;;;;;5031500;28;20420;-72
2022/10/11 02:53:03;;;;;;;3.93;1.40;;;8.70;99.90;;;;;;5025065;28;20481;-71
2022/10/11 02:55:29;;;;;;;6.23;2.00;;;8.80;99.90;;;;;;5028350;28;20416;-72
2022/10/11 02:57:54;;;;;;;5.83;1.97;;;8.70;99.90;;;;;;5027986;28;20861;-71
2022/10/11 03:00:20;;;;;;;5.30;2.40;;;8.70;99.90;;;;;;5015643;28;20587;-72
2022/10/11 03:02:45;;;;;;;6.30;1.67;;;8.60;99.90;;;;;;5020658;28;20222;-72
2022/10/11 03:05:11;;;;;;;4.00;2.10;;;8.60;99.90;;;;;;5030646;28;20211;-72
2022/10/11 03:07:36;;;;;;;4.40;1.50;;;8.70;99.90;;;;;;5024926;28;20189;-72
2022/10/11 03:10:03;;;;;;;10.00;2.30;;;8.60;99.90;;;;;;5032081;28;20172;-72
2022/10/11 03:12:28;;;;;;;6.57;2.10;;;8.60;99.90;;;;;;5030996;28;20199;-72
2022/10/11 03:14:54;;;;;;;9.33;2.13;;;8.60;99.90;;;;;;5032477;28;20417;-71
2022/10/11 03:17:19;;;;;;;6.77;1.93;;;8.60;99.90;;;;;;5023071;28;20182;-71
2022/10/11 03:19:45;;;;;;;5.63;2.10;;;8.60;99.90;;;;;;5032035;28;20187;-71
2022/10/11 03:22:10;;;;;;;3.00;1.80;;;8.60;99.90;;;;;;5030967;28;20199;-71
2022/10/11 03:24:36;;;;;;;5.33;2.50;;;8.50;99.90;;;;;;5031622;28;20281;-71
2022/10/11 03:27:01;;;;;;;10.37;2.33;;;8.40;99.90;;;;;;5023664;28;20181;-71
2022/10/11 03:29:27;;;;;;;3.70;2.00;;;8.40;99.90;;;;;;5031930;28;20173;-71
2022/10/11 03:31:52;;;;;;;6.87;1.83;;;8.50;99.90;;;;;;5030876;28;20694;-71
2022/10/11 03:34:19;;;;;;;6.00;2.20;;;8.50;99.90;;;;;;5023493;28;20182;-71
2022/10/11 03:36:45;;;;;;;3.33;2.30;;;8.60;99.90;;;;;;5031741;28;20170;-72
2022/10/11 03:39:11;;;;;;;5.30;2.10;;;8.70;99.90;;;;;;5022913;28;20949;-71
2022/10/11 03:41:36;;;;;;;6.63;1.87;;;8.70;99.90;;;;;;5023344;28;20179;-71
2022/10/11 03:44:02;;;;;;;4.27;2.20;;;8.60;99.90;;;;;;5022607;28;20220;-71
2022/10/11 03:46:27;;;;;;;7.03;2.47;;;8.60;99.90;;;;;;5027951;28;20254;-71
2022/10/11 03:48:53;;;;;;;4.43;2.43;;;8.50;99.90;;;;;;5032056;28;20180;-72
2022/10/11 03:51:19;;;;;;;7.80;2.33;;;8.60;99.90;;;;;;5030525;28;20221;-71
2022/10/11 03:53:44;;;;;;;12.60;4.13;;;8.60;99.90;;;;;;5017768;28;20197;-71
2022/10/11 03:56:11;;;;;;;8.67;3.20;;;8.50;99.90;;;;;;5028625;28;20168;-72
2022/10/11 03:58:36;;;;;;;10.73;3.80;;;8.50;99.90;;;;;;5027390;28;20260;-71
2022/10/11 04:01:02;;;;;;;11.33;4.33;;;8.50;99.90;;;;;;5019365;28;20458;-71
2022/10/11 04:03:28;;;;;;;12.97;5.00;;;8.40;99.90;;;;;;5028466;28;20193;-72
2022/10/11 04:05:53;;;;;;;5.83;4.10;;;8.40;99.90;;;;;;5026110;28;20179;-72
2022/10/11 04:08:19;;;;;;;12.83;5.47;;;8.40;99.90;;;;;;5029581;28;20651;-71
2022/10/11 04:10:44;;;;;;;11.40;3.73;;;8.50;99.90;;;;;;5016591;28;20266;-71
2022/10/11 04:13:11;;;;;;;15.50;6.00;;;8.40;99.90;;;;;;5031045;28;20205;-71
2022/10/11 04:15:40;;;;;;;13.83;5.30;;;8.40;99.90;;;;;;5023536;28;20187;-73
2022/10/11 04:18:06;;;;;;;8.33;3.53;;;8.40;99.90;;;;;;5029821;28;20524;-72
2022/10/11 04:20:31;;;;;;;16.60;4.57;;;8.40;99.90;;;;;;5014124;28;20587;-71
2022/10/11 04:22:57;;;;;;;5.87;3.03;;;8.30;99.90;;;;;;5024586;28;20470;-72
2022/10/11 04:25:23;;;;;;;9.90;4.00;;;8.50;99.90;;;;;;5029819;28;20582;-72
2022/10/11 04:27:48;;;;;;;11.00;4.10;;;8.40;99.90;;;;;;5024572;28;20477;-71
2022/10/11 04:30:15;;;;;;;6.57;2.83;;;8.30;99.90;;;;;;5027908;28;20508;-72
2022/10/11 04:32:40;;;;;;;10.60;6.00;;;8.40;99.90;;;;;;5031062;28;20233;-72
2022/10/11 04:35:06;;;;;;;14.80;5.17;;;8.30;99.90;;;;;;5027334;28;20428;-72
2022/10/11 04:37:32;;;;;;;7.83;3.50;;;8.40;99.90;;;;;;5023148;28;20171;-72
2022/10/11 04:39:58;;;;;;;10.70;3.70;;;8.50;99.90;;;;;;5026859;28;20755;-72
2022/10/11 04:42:23;;;;;;;14.53;4.50;;;8.50;99.90;;;;;;5029949;28;20199;-72
2022/10/11 04:44:49;;;;;;;7.90;4.60;;;8.50;99.90;;;;;;5028535;28;20204;-72
2022/10/11 04:47:14;;;;;;;15.57;5.77;;;8.30;99.90;;;;;;5020585;28;20168;-72
2022/10/11 04:49:40;;;;;;;8.33;5.00;;;8.20;99.90;;;;;;5029149;28;20175;-72
2022/10/11 04:52:06;;;;;;;6.37;3.47;;;8.20;99.90;;;;;;5019965;28;20535;-73
2022/10/11 04:54:31;;;;;;;6.90;3.50;;;8.10;99.90;;;;;;4998024;28;20170;-73
2022/10/11 04:56:57;;;;;;;7.47;3.10;;;8.30;99.90;;;;;;5017847;28;20294;-72
2022/10/11 04:59:22;;;;;;;11.90;3.60;;;8.30;99.90;;;;;;5016291;28;20184;-73
2022/10/11 05:01:48;;;;;;;13.57;5.00;;;8.20;99.90;;;;;;5000688;28;20185;-72
2022/10/11 05:04:13;;;;;;;7.40;4.10;;;8.10;99.90;;;;;;5004909;28;20255;-73
2022/10/11 05:06:39;;;;;;;16.37;5.20;;;8.10;99.90;;;;;;5003619;28;20185;-72
2022/10/11 05:09:04;;;;;;;13.90;5.83;;;8.10;99.90;;;;;;5009655;28;20178;-73
2022/10/11 05:11:30;;;;;;;9.67;6.03;;;8.20;99.90;;;;;;5007944;28;20172;-73
2022/10/11 05:13:55;;;;;;;11.63;5.57;;;8.20;99.90;;;;;;5007822;28;20197;-75
2022/10/11 05:16:22;;;;;;;21.80;6.33;;;8.20;99.90;;;;;;5012775;28;20221;-74
2022/10/11 05:18:47;;;;;;;16.97;6.77;;;8.20;99.90;;;;;;5008413;28;20170;-72
2022/10/11 05:21:22;;;;;;;10.00;5.60;;;8.10;99.90;;;;;;5008466;28;20527;-73
2022/10/11 05:23:49;;;;;;;17.53;6.03;;;8.20;99.90;;;;;;5008299;28;20211;-73
2022/10/11 05:26:16;;;;;;;9.50;5.23;;;8.10;99.90;;;;;;5007867;28;20446;-73
2022/10/11 05:28:42;;;;;;;20.90;7.37;;;8.10;99.90;;;;;;5009059;28;20414;-71
2022/10/11 05:31:08;;;;;;;15.67;5.20;;;8.00;99.90;;;;;;5003371;28;20455;-72
2022/10/11 05:33:34;;;;;;;8.20;4.37;;;8.00;99.90;;;;;;5003035;28;20439;-72
2022/10/11 05:36:00;;;;;;;14.50;4.40;;;8.10;99.90;;;;;;5001859;28;20198;-72
2022/10/11 05:38:26;;;;;;;9.17;4.87;;;8.10;99.90;;;;;;4999892;28;20410;-71
2022/10/11 05:40:51;;;;;;;8.30;4.30;;;8.30;99.90;;;;;;5000949;28;20229;-72
2022/10/11 05:43:17;;;;;;;13.23;5.23;;;8.40;99.90;;;;;;5009450;28;20816;-72
2022/10/11 05:45:43;;;;;;;8.80;5.67;;;8.40;99.90;;;;;;5002155;28;20168;-72
2022/10/11 05:48:10;;;;;;;18.40;6.07;;;8.60;99.90;;;;;;5002770;28;20173;-72
2022/10/11 05:50:36;;;;;;;20.50;7.37;;;8.50;99.90;;;;;;5005828;28;20408;-73
2022/10/11 05:53:02;;;;;;;16.20;6.53;;;8.50;99.90;;;;;;5000706;28;20435;-71
2022/10/11 05:55:28;;;;;;;10.87;5.40;;;8.60;99.90;;;;;;5003245;28;20918;-73
2022/10/11 05:57:55;;;;;;;12.00;6.17;;;8.60;99.90;;;;;;5001215;28;20196;-75
2022/10/11 06:00:22;;;;;;;8.47;5.40;;;8.60;99.90;;;;;;5000671;28;20176;-73
2022/10/11 06:02:48;;;;;;;14.20;4.90;;;8.60;99.90;;;;;;5004274;28;20442;-72
2022/10/11 06:05:14;;;;;;;13.50;4.17;;;8.70;99.90;;;;;;4999014;28;20881;-73
2022/10/11 06:07:40;;;;;;;11.07;4.70;;;8.80;99.90;;;;;;4999873;28;20656;-74
2022/10/11 06:10:06;;;;;;;12.93;4.80;;;8.80;99.90;;;;;;4999812;28;20238;-73
2022/10/11 06:12:32;;;;;;;15.03;5.10;;;8.80;99.90;;;;;;5005519;28;21005;-72
2022/10/11 06:14:58;;;;;;;12.30;4.20;;;8.80;99.90;;;;;;5004034;28;20447;-72
2022/10/11 06:17:23;;;;;;;6.47;4.53;;;8.90;99.90;;;;;;5003445;28;20303;-73
2022/10/11 06:19:49;;;;;;;9.13;4.33;;;8.90;99.90;;;;;;5007752;28;20550;-72
2022/10/11 06:22:15;;;;;;;9.73;4.73;;;9.00;99.90;;;;;;5003034;28;20205;-72
2022/10/11 06:24:43;;;;;;;16.53;5.37;;;9.00;99.90;;;;;;5006449;28;20456;-73
2022/10/11 06:27:09;;;;;;;14.10;4.70;;;9.10;99.90;;;;;;5008375;28;20480;-74
2022/10/11 06:29:35;;;;;;;9.57;4.20;;;9.20;99.90;;;;;;5000049;28;20396;-72
2022/10/11 06:32:01;;;;;;;7.27;3.40;;;9.30;99.90;;;;;;5005697;28;20546;-72
2022/10/11 06:34:27;;;;;;;7.50;3.67;;;9.50;99.90;;;;;;5001811;28;20505;-73
2022/10/11 06:36:53;;;;;;;11.60;3.63;;;9.50;99.90;;;;;;4999235;28;20422;-72
2022/10/11 06:39:18;;;;;;;10.13;3.50;;;9.80;99.90;;;;;;5000382;28;20173;-72
2022/10/11 06:41:44;;;;;;;2.97;2.60;;;10.10;99.90;;;;;;4999877;28;20920;-72
2022/10/11 06:44:14;;;;;;;6.10;2.47;;;10.40;99.90;;;;;;4999109;28;20695;-72
2022/10/11 06:46:40;;;;;;;4.53;2.47;;;10.20;99.90;;;;;;4998724;28;20180;-71
2022/10/11 06:49:06;;;;;;;2.67;2.43;;;10.50;99.90;;;;;;5002108;28;20461;-72
2022/10/11 06:51:33;;;;;;;6.50;2.30;;;10.80;99.90;;;;;;5002086;28;20411;-72
2022/10/11 06:54:00;;;;;;;6.10;2.97;;;10.70;99.90;;;;;;5003015;28;20195;-72
2022/10/11 06:56:27;;;;;;;3.73;2.53;;;11.00;99.90;;;;;;5000742;28;20407;-72
2022/10/11 06:58:54;;;;;;;2.67;2.10;;;11.40;99.90;;;;;;5004248;28;20566;-71
2022/10/11 07:01:22;;;;;;;5.50;2.80;;;11.30;99.90;;;;;;4999314;28;20498;-74
2022/10/11 07:03:49;;;;;;;4.47;1.93;;;11.70;99.90;;;;;;5000324;28;20456;-73
2022/10/11 07:06:18;;;;;;;8.17;2.30;;;12.10;99.90;;;;;;5003484;28;20819;-74
2022/10/11 07:08:44;;;;;;;5.63;2.60;;;12.10;99.90;;;;;;5027198;28;20430;-73
2022/10/11 07:11:12;;;;;;;7.97;3.03;;;11.60;99.90;;;;;;5032578;28;20495;-74
2022/10/11 07:13:39;;;;;;;7.27;1.90;;;11.60;99.90;;;;;;5032287;28;20197;-73
2022/10/11 07:16:07;;;;;;;4.57;2.27;;;11.80;99.90;;;;;;5032533;28;20463;-75
2022/10/11 07:18:33;;;;;;;3.03;2.20;;;12.70;99.90;;;;;;5000446;28;20497;-74
2022/10/11 07:21:05;;;;;;;8.50;3.20;;;12.40;99.90;;;;;;5032531;28;20500;-73
2022/10/11 07:23:31;;;;;;;6.00;2.30;;;12.40;99.90;;;;;;5031989;28;20234;-73
2022/10/11 07:25:57;;;;;;;4.13;2.23;;;12.10;99.90;;;;;;5029709;28;20438;-73
2022/10/11 07:28:23;;;;;;;3.70;1.90;;;11.80;99.90;;;;;;5030849;28;20456;-74
2022/10/11 07:30:49;;;;;;;4.80;2.00;;;12.00;99.90;;;;;;5031999;28;20251;-71
2022/10/11 07:33:15;;;;;;;5.10;2.57;;;12.70;99.90;;;;;;5030389;28;20514;-74
2022/10/11 07:35:40;;;;;;;8.07;1.63;;;12.20;99.90;;;;;;5031913;28;20445;-73
2022/10/11 07:38:07;;;;;;;7.13;1.70;;;12.20;99.90;;;;;;5031826;28;20172;-73
2022/10/11 07:40:39;;;;;;;5.03;1.80;;;11.90;99.90;;;;;;5031942;28;20174;-74
2022/10/11 07:43:04;;;;;;;5.43;2.30;;;12.30;99.90;;;;;;5031870;28;20491;-72
2022/10/11 07:45:30;;;;;;;4.13;1.70;;;12.80;99.90;;;;;;5031883;28;20536;-75
2022/10/11 07:47:56;;;;;;;8.00;2.40;;;12.90;99.90;;;;;;5031718;28;20181;-73
2022/10/11 07:50:23;;;;;;;3.90;2.03;;;12.60;99.90;;;;;;5022377;28;20175;-73
2022/10/11 07:52:48;;;;;;;5.40;2.37;;;12.20;99.90;;;;;;5031466;28;20561;-72
2022/10/11 07:55:14;;;;;;;3.33;1.50;;;12.70;99.90;;;;;;5022659;28;20496;-72
2022/10/11 07:57:40;;;;;;;5.27;2.20;;;12.90;99.90;;;;;;5019075;28;20168;-72
2022/10/11 08:00:06;;;;;;;4.83;1.83;;;12.60;99.90;;;;;;5028000;28;20169;-73
2022/10/11 08:02:31;;;;;;;4.63;2.23;;;13.00;99.90;;;;;;4999045;28;20193;-73
2022/10/11 08:04:57;;;;;;;5.43;2.30;;;13.20;99.90;;;;;;5031227;28;20452;-73
2022/10/11 08:07:22;;;;;;;5.47;2.10;;;13.50;99.90;;;;;;5028253;28;20178;-73
2022/10/11 08:09:48;;;;;;;5.60;2.50;;;14.80;99.90;;;;;;5011522;28;20172;-73
2022/10/11 08:12:14;;;;;;;2.53;1.90;;;15.40;99.90;;;;;;5011108;28;20271;-73
2022/10/11 08:14:42;;;;;;;6.03;2.47;;;15.70;99.90;;;;;;5031519;28;20171;-73
2022/10/11 08:17:07;;;;;;;5.93;1.57;;;15.40;99.90;;;;;;5031614;28;20174;-73
2022/10/11 08:19:33;;;;;;;8.60;2.10;;;16.90;99.90;;;;;;5031731;28;20413;-72
2022/10/11 08:21:59;;;;;;;4.80;2.03;;;18.20;99.90;;;;;;5031509;28;20222;-73
2022/10/11 08:24:24;;;;;;;3.47;1.77;;;17.40;99.90;;;;;;5031391;28;20199;-73
2022/10/11 08:26:50;;;;;;;8.33;1.90;;;16.90;99.90;;;;;;5028352;28;20255;-74
2022/10/11 08:29:16;;;;;;;5.63;2.60;;;17.60;99.90;;;;;;5031528;28;20519;-72
2022/10/11 08:31:43;;;;;;;3.30;1.93;;;19.20;99.90;;;;;;5031221;28;20747;-73
2022/10/11 08:34:12;;;;;;;4.70;2.30;;;19.00;99.90;;;;;;5031496;28;20405;-73
2022/10/11 08:36:38;;;;;;;4.53;1.80;;;17.90;99.90;;;;;;5031213;28;20445;-74
2022/10/11 08:39:07;;;;;;;5.77;2.10;;;18.00;99.90;;;;;;5031218;28;20394;-72
2022/10/11 08:41:51;;;;;;;5.70;1.67;;;17.00;99.90;;;;;;5029045;28;20407;-72
2022/10/11 08:44:45;;;;;;;5.77;2.43;;;17.90;99.90;;;;;;5028320;28;20983;-73
2022/10/11 08:47:21;;;;;;;2.50;1.50;;;18.10;99.90;;;;;;5019977;28;20429;-73
2022/10/11 08:49:47;;;;;;;3.27;1.67;;;19.90;99.90;;;;;;5019713;28;20457;-73
2022/10/11 08:52:20;;;;;;;5.33;2.03;;;20.10;99.90;;;;;;5014480;28;20469;-73
2022/10/11 08:54:54;;;;;;;4.30;2.23;;;20.10;99.90;;;;;;5021583;28;20221;-72
2022/10/11 08:57:24;;;;;;;7.63;2.17;;;19.80;99.90;;;;;;5014248;28;20950;-73
2022/10/11 09:00:11;;;;;;;3.60;1.90;;;18.80;99.90;;;;;;5024076;28;20469;-73
2022/10/11 09:03:02;;;;;;;7.10;2.00;;;19.60;99.90;;;;;;5018247;28;20429;-72
2022/10/11 09:05:33;;;;;;;2.67;1.70;;;20.30;99.90;;;;;;5015602;28;20463;-72
2022/10/11 09:08:18;;;;;;;4.50;1.67;;;20.20;99.90;;;;;;5019692;28;20417;-73
2022/10/11 09:10:54;;;;;;;4.73;2.23;;;19.40;99.90;;;;;;5003602;28;20398;-72
2022/10/11 09:13:50;;;;;;;5.30;2.30;;;18.30;99.90;;;;;;5030876;28;20504;-73
2022/10/11 09:16:56;;;;;;;4.03;2.10;;;18.50;99.90;;;;;;5030611;28;20398;-72
2022/10/11 09:19:36;;;;;;;4.10;2.00;;;18.00;99.90;;;;;;5030693;28;20394;-72
2022/10/11 09:22:21;;;;;;;7.60;2.73;;;17.00;99.90;;;;;;5030794;28;20515;-72
2022/10/11 09:25:21;;;;;;;7.03;2.10;;;17.60;99.90;;;;;;5003108;28;20445;-72
2022/10/11 09:27:54;;;;;;;3.53;2.10;;;18.30;99.90;;;;;;5011817;28;20457;-72
2022/10/11 09:30:20;;;;;;;5.33;1.97;;;18.00;99.90;;;;;;5028283;28;20429;-73
2022/10/11 09:32:53;;;;;;;6.93;2.03;;;16.00;99.90;;;;;;5024620;28;20457;-72
2022/10/11 09:35:21;;;;;;;5.90;2.00;;;15.60;99.90;;;;;;5030858;28;20178;-72
2022/10/11 09:38:28;;;;;;;8.53;2.00;;;15.30;99.90;;;;;;5030625;28;20765;-72
2022/10/11 09:41:19;;;;;;;4.47;2.07;;;16.00;99.90;;;;;;4994242;28;20431;-72
2022/10/11 09:43:48;;;;;;;11.67;2.80;;;15.40;99.90;;;;;;5029718;28;20433;-72
2022/10/11 09:46:38;;;;;;;15.30;1.90;;;15.70;99.90;;;;;;5012799;28;20791;-72
2022/10/11 09:49:11;;;;;;;3.40;1.93;;;15.90;99.90;;;;;;5029536;28;20407;-73
2022/10/11 09:51:40;;;;;;;3.30;1.83;;;15.70;99.90;;;;;;5026996;28;20417;-73
2022/10/11 09:54:06;;;;;;;7.07;2.17;;;15.60;99.90;;;;;;5034033;28;20420;-73
2022/10/11 09:56:38;;;;;;;12.13;2.23;;;15.20;99.90;;;;;;5019297;28;20450;-73
2022/10/11 09:59:28;;;;;;;4.60;1.67;;;15.10;99.90;;;;;;5013947;28;20277;-74
2022/10/11 10:02:13;;;;;;;6.03;2.40;;;15.00;99.90;;;;;;5025866;28;20504;-72
2022/10/11 10:04:53;;;;;;;7.53;1.87;;;14.80;99.90;;;;;;5003996;28;20508;-74
2022/10/11 10:07:19;;;;;;;7.90;2.07;;;15.00;99.90;;;;;;5037118;28;20421;-71
2022/10/11 10:09:45;;;;;;;3.40;1.40;;;15.20;99.90;;;;;;5027718;28;20468;-76
2022/10/11 10:12:13;;;;;;;3.93;2.27;;;15.20;99.90;;;;;;5022656;28;20470;-74
2022/10/11 10:14:40;;;;;;;5.70;1.97;;;14.60;99.90;;;;;;5031204;28;20419;-76
2022/10/11 10:17:14;;;;;;;6.10;1.93;;;14.40;99.90;;;;;;5032826;28;20442;-74
2022/10/11 10:19:51;;;;;;;4.73;1.57;;;14.60;99.90;;;;;;5032117;28;20415;-74
2022/10/11 10:22:26;;;;;;;8.40;1.77;;;14.50;99.90;;;;;;5032514;28;20843;-74
2022/10/11 10:24:53;;;;;;;5.83;2.10;;;14.80;99.90;;;;;;5029477;28;20451;-74
2022/10/11 10:27:27;;;;;;;6.43;1.83;;;14.90;99.90;;;;;;5023913;28;20442;-73
2022/10/11 10:30:06;;;;;;;8.07;2.27;;;14.70;99.90;;;;;;5024444;28;20451;-73
2022/10/11 10:32:35;;;;;;;2.93;1.50;;;14.70;99.90;;;;;;5032369;28;20431;-74
2022/10/11 10:35:22;;;;;;;6.60;1.67;;;14.70;99.90;;;;;;5033018;28;20454;-74
2022/10/11 10:37:58;;;;;;;2.40;1.60;;;14.60;99.90;;;;;;5033598;28;20787;-74
2022/10/11 10:40:31;;;;;;;10.27;1.87;;;14.90;99.90;;;;;;5033677;28;20420;-73
2022/10/11 10:42:57;;;;;;;11.00;1.80;;;15.00;99.90;;;;;;5024393;28;20466;-72
2022/10/11 10:45:30;;;;;;;4.10;1.87;;;14.90;99.90;;;;;;5025100;28;20860;-74
2022/10/11 10:48:09;;;;;;;4.63;1.90;;;14.60;99.90;;;;;;5015878;28;20184;-73
2022/10/11 10:50:54;;;;;;;7.73;1.80;;;14.70;99.90;;;;;;5025566;28;20485;-74
2022/10/11 10:53:38;;;;;;;7.53;1.30;;;15.10;99.90;;;;;;5028771;28;20435;-72
2022/10/11 10:56:12;;;;;;;6.87;1.60;;;15.20;99.90;;;;;;5014337;28;20419;-72
2022/10/11 10:58:52;;;;;;;4.57;1.73;;;15.30;99.90;;;;;;5012492;28;20423;-73
2022/10/11 11:01:29;;;;;;;5.87;1.67;;;15.40;99.90;;;;;;5013579;28;20408;-73
2022/10/11 11:04:08;;;;;;;9.23;1.40;;;15.30;99.90;;;;;;5018068;28;20468;-73
2022/10/11 11:07:16;;;;;;;5.20;2.07;;;15.50;99.90;;;;;;4996382;28;20423;-73
2022/10/11 11:10:05;;;;;;;3.10;1.37;;;15.60;99.90;;;;;;4991580;28;20405;-74
2022/10/11 11:12:52;;;;;;;5.67;1.60;;;15.80;99.90;;;;;;4991382;28;20457;-73
2022/10/11 11:15:35;;;;;;;1.77;1.33;;;15.80;99.90;;;;;;4992362;28;20440;-72
2022/10/11 11:18:19;;;;;;;6.10;1.87;;;15.90;99.90;;;;;;4993023;28;20447;-72
2022/10/11 11:20:53;;;;;;;2.53;1.50;;;15.90;99.90;;;;;;4993056;28;20407;-72
2022/10/11 11:23:29;;;;;;;6.73;1.27;;;15.70;99.90;;;;;;5016031;28;20471;-73
2022/10/11 11:26:19;;;;;;;5.77;1.77;;;16.10;99.90;;;;;;5015718;28;20911;-73
2022/10/11 11:29:12;;;;;;;5.20;1.43;;;16.00;99.90;;;;;;5015445;28;20412;-73
2022/10/11 11:32:25;;;;;;;7.33;1.80;;;16.10;99.90;;;;;;4996455;28;20899;-72
2022/10/11 11:35:00;;;;;;;6.60;1.40;;;16.40;99.90;;;;;;4937026;28;20438;-73
2022/10/11 11:37:37;;;;;;;3.00;1.43;;;16.00;99.90;;;;;;5030555;28;20422;-72
2022/10/11 11:40:14;;;;;;;4.53;1.73;;;16.00;99.90;;;;;;5030658;28;20475;-72
2022/10/11 11:42:45;;;;;;;3.33;1.33;;;16.10;99.90;;;;;;5001155;28;20453;-72
2022/10/11 11:45:16;;;;;;;5.80;1.37;;;15.70;99.90;;;;;;5003277;28;20561;-71
2022/10/11 11:47:46;;;;;;;5.47;2.63;;;15.40;99.90;;;;;;5005724;28;20549;-73
2022/10/11 11:50:21;;;;;;;7.07;1.90;;;15.60;99.90;;;;;;5002941;28;20442;-71
2022/10/11 11:52:50;;;;;;;3.00;1.50;;;15.40;99.90;;;;;;5016186;28;20458;-72
2022/10/11 11:55:19;;;;;;;6.20;1.53;;;15.20;99.90;;;;;;5022788;28;20462;-71
2022/10/11 11:57:51;;;;;;;6.10;1.17;;;15.00;99.90;;;;;;5014316;28;20453;-71
2022/10/11 12:00:20;;;;;;;3.80;1.17;;;15.10;99.90;;;;;;5029002;28;20468;-73
2022/10/11 12:03:08;;;;;;;5.27;1.17;;;15.30;99.90;;;;;;5021794;28;20451;-72
2022/10/11 12:05:35;;;;;;;4.87;1.20;;;15.10;99.90;;;;;;5021638;28;20461;-72
2022/10/11 12:08:05;;;;;;;5.50;1.57;;;15.20;99.90;;;;;;5024450;28;20428;-72
2022/10/11 12:10:53;;;;;;;6.23;1.73;;;15.00;99.90;;;;;;5015778;28;20757;-72
2022/10/11 12:13:24;;;;;;;7.60;1.30;;;14.90;99.90;;;;;;5010303;28;20964;-72
2022/10/11 12:16:00;;;;;;;4.73;1.97;;;14.80;99.90;;;;;;5028976;28;20415;-71
2022/10/11 12:18:26;;;;;;;2.23;1.73;;;14.60;99.90;;;;;;5027549;28;20951;-72
2022/10/11 12:21:15;;;;;;;4.87;1.10;;;14.60;99.90;;;;;;5030663;28;20430;-71
2022/10/11 12:23:44;;;;;;;8.80;2.07;;;14.50;99.90;;;;;;5030282;28;20541;-71
2022/10/11 12:26:28;;;;;;;2.80;1.63;;;14.50;99.90;;;;;;5030929;28;20425;-72
2022/10/11 12:29:00;;;;;;;7.00;2.00;;;14.60;99.90;;;;;;5031513;28;20492;-71
2022/10/11 12:31:35;;;;;;;4.70;1.67;;;14.40;99.90;;;;;;5021464;28;20433;-71
2022/10/11 12:34:00;;;;;;;3.53;1.10;;;14.60;99.90;;;;;;5009927;28;20465;-72
2022/10/11 12:36:44;;;;;;;7.70;1.93;;;14.70;99.90;;;;;;5010631;28;20412;-72
2022/10/11 12:39:18;;;;;;;2.23;1.40;;;14.90;99.90;;;;;;5010810;28;20162;-72
2022/10/11 12:41:50;;;;;;;4.03;1.60;;;15.20;99.90;;;;;;5010022;28;20412;-72
2022/10/11 12:44:25;;;;;;;2.80;1.77;;;15.40;99.90;;;;;;5005657;28;20455;-72
2022/10/11 12:46:53;;;;;;;3.57;1.47;;;15.50;99.90;;;;;;5010337;28;20444;-73
2022/10/11 12:49:39;;;;;;;4.10;1.50;;;15.40;99.90;;;;;;5052947;23;20910;-68
2022/10/11 12:52:16;;;;;;;3.07;1.27;;;15.70;99.90;;;;;;5039406;28;20839;-68
2022/10/11 12:55:03;;;;;;;6.73;1.70;;;15.70;99.90;;;;;;5031140;28;20491;-68
2022/10/11 12:58:11;;;;;;;3.47;1.20;;;16.10;99.90;;;;;;5031310;28;20425;-68
2022/10/11 13:00:39;;;;;;;5.40;1.50;;;16.40;99.90;;;;;;5011592;28;20402;-69
2022/10/11 13:03:28;;;;;;;2.77;1.30;;;16.20;99.90;;;;;;5011825;28;20912;-68
2022/10/11 13:05:56;;;;;;;3.73;1.63;;;16.20;99.90;;;;;;5023892;28;20464;-68
2022/10/11 13:08:33;;;;;;;4.50;1.30;;;16.40;99.90;;;;;;5009754;28;20435;-68
2022/10/11 13:11:03;;;;;;;4.20;1.20;;;16.50;99.90;;;;;;5028473;28;20476;-69
2022/10/11 13:13:37;;;;;;;3.67;1.20;;;16.00;99.90;;;;;;5022504;28;20436;-69